createdAt,value
2023-07-18T00:02:16.740Z,536.85
2023-07-18T00:04:50.449Z,519.80
2023-07-18T00:07:24.421Z,453.52
2023-07-18T00:09:59.211Z,466.33
2023-07-18T00:12:33.079Z,491.77
2023-07-18T00:15:07.643Z,482.25
2023-07-18T00:17:43.615Z,565.03
2023-07-18T00:20:19.497Z,560.10
2023-07-18T00:22:53.206Z,529.45
2023-07-18T00:25:27.307Z,642.65
2023-07-18T00:28:00.959Z,651.13
2023-07-18T00:30:34.532Z,631.83
2023-07-18T00:33:09.728Z,662.53
2023-07-18T00:35:44.837Z,726.85
2023-07-18T00:38:18.535Z,715.22
2023-07-18T00:40:52.168Z,710.00
2023-07-18T00:43:25.974Z,570.95
2023-07-18T00:45:59.554Z,610.58
2023-07-18T00:48:34.845Z,676.35
2023-07-18T00:51:09.769Z,656.05
2023-07-18T00:53:43.870Z,514.17
2023-07-18T00:56:17.723Z,590.78
2023-07-18T00:58:51.650Z,463.75
2023-07-18T01:01:25.242Z,459.25
2023-07-18T01:04:00.418Z,473.10
2023-07-18T01:06:34.710Z,484.30
2023-07-18T01:09:09.751Z,452.50
2023-07-18T01:11:43.944Z,660.20
2023-07-18T01:14:17.478Z,658.17
2023-07-18T01:16:51.159Z,810.53
2023-07-18T01:19:26.181Z,785.33
2023-07-18T01:22:01.211Z,683.33
2023-07-18T01:24:34.817Z,798.60
2023-07-18T01:27:08.574Z,807.15
2023-07-18T01:29:42.161Z,718.80
2023-07-18T01:32:15.729Z,756.90
2023-07-18T01:34:49.392Z,780.08
2023-07-18T01:37:24.373Z,761.83
2023-07-18T01:39:57.990Z,787.28
2023-07-18T01:42:31.601Z,799.83
2023-07-18T01:45:05.855Z,690.58
2023-07-18T01:47:40.383Z,533.90
2023-07-18T01:50:14.930Z,528.65
2023-07-18T01:52:50.226Z,671.10
2023-07-18T01:55:24.038Z,768.55
2023-07-18T01:57:57.651Z,760.03
2023-07-18T02:00:32.289Z,721.45
2023-07-18T02:03:07.079Z,601.40
2023-07-18T02:05:41.039Z,775.88
2023-07-18T02:08:16.118Z,669.42
2023-07-18T02:10:50.063Z,748.08
2023-07-18T02:13:23.718Z,686.95
2023-07-18T02:15:57.287Z,763.92
2023-07-18T02:18:30.898Z,598.72
2023-07-18T02:21:04.644Z,715.95
2023-07-18T02:23:39.836Z,653.08
2023-07-18T02:26:16.251Z,571.15
2023-07-18T02:28:51.489Z,738.78
2023-07-18T02:31:25.289Z,820.33
2023-07-18T02:33:59.068Z,903.88
2023-07-18T02:36:32.654Z,801.03
2023-07-18T02:39:11.353Z,764.42
2023-07-18T02:41:45.630Z,628.90
2023-07-18T02:44:19.571Z,877.50
2023-07-18T02:46:53.179Z,875.28
2023-07-18T02:49:28.371Z,753.33
2023-07-18T02:52:02.112Z,811.45
2023-07-18T02:54:37.401Z,710.30
2023-07-18T02:57:11.146Z,804.42
2023-07-18T02:59:44.758Z,818.10
2023-07-18T03:02:18.922Z,586.47
2023-07-18T03:04:52.516Z,788.25
2023-07-18T03:07:26.080Z,822.63
2023-07-18T03:10:01.128Z,753.25
2023-07-18T03:12:34.843Z,735.45
2023-07-18T03:15:09.357Z,685.42
2023-07-18T03:17:43.060Z,628.78
2023-07-18T03:20:20.581Z,821.35
2023-07-18T03:22:56.743Z,924.75
2023-07-18T03:25:32.161Z,765.20
2023-07-18T03:28:06.052Z,628.50
2023-07-18T03:30:41.419Z,709.20
2023-07-18T03:33:16.583Z,671.00
2023-07-18T03:35:50.364Z,839.10
2023-07-18T03:38:24.063Z,755.97
2023-07-18T03:41:00.555Z,783.80
2023-07-18T03:43:34.972Z,820.55
2023-07-18T03:46:08.598Z,552.97
2023-07-18T03:48:42.298Z,546.83
2023-07-18T03:51:16.521Z,535.42
2023-07-18T03:53:52.047Z,697.17
2023-07-18T03:56:32.202Z,710.70
2023-07-18T03:59:06.118Z,782.40
2023-07-18T04:01:39.805Z,624.28
2023-07-18T04:04:14.820Z,729.47
2023-07-18T04:06:48.681Z,756.65
2023-07-18T04:09:22.299Z,737.88
2023-07-18T04:11:57.332Z,741.70
2023-07-18T04:14:30.930Z,757.85
2023-07-18T04:17:04.869Z,899.78
2023-07-18T04:19:38.451Z,782.45
2023-07-18T04:22:12.021Z,650.38
2023-07-18T04:24:45.603Z,559.97
2023-07-18T04:27:20.587Z,547.30
2023-07-18T04:29:54.387Z,609.75
2023-07-18T04:32:28.020Z,560.10
2023-07-18T04:35:01.653Z,510.13
2023-07-18T04:37:35.303Z,592.65
2023-07-18T04:40:10.147Z,478.25
2023-07-18T04:42:45.227Z,411.23
2023-07-18T04:45:19.001Z,374.83
2023-07-18T04:47:52.672Z,487.92
2023-07-18T04:50:29.196Z,505.23
2023-07-18T04:53:03.843Z,515.50
2023-07-18T04:55:37.696Z,382.60
2023-07-18T04:58:12.881Z,400.55
2023-07-18T05:00:47.247Z,488.85
2023-07-18T05:03:20.926Z,398.85
2023-07-18T05:05:55.152Z,403.40
2023-07-18T05:08:29.247Z,387.38
2023-07-18T05:11:04.057Z,459.73
2023-07-18T05:13:39.076Z,402.35
2023-07-18T05:16:12.661Z,473.60
2023-07-18T05:18:46.630Z,397.10
2023-07-18T05:21:20.580Z,445.42
2023-07-18T05:23:54.439Z,592.95
2023-07-18T05:26:28.080Z,449.50
2023-07-18T05:29:03.258Z,593.97
2023-07-18T05:31:36.923Z,436.88
2023-07-18T05:34:11.123Z,578.55
2023-07-18T05:36:45.383Z,480.55
2023-07-18T05:39:19.099Z,569.80
2023-07-18T05:41:52.922Z,591.65
2023-07-18T05:44:27.992Z,767.15
2023-07-18T05:47:04.188Z,594.00
2023-07-18T05:49:38.052Z,603.33
2023-07-18T05:52:11.741Z,801.63
2023-07-18T05:54:46.386Z,649.85
2023-07-18T05:57:20.049Z,992.50
2023-07-18T05:59:55.228Z,1303.03
2023-07-18T06:02:28.966Z,993.33
2023-07-18T06:05:02.768Z,1999.90
2023-07-18T06:07:36.640Z,1999.90
2023-07-18T06:10:10.701Z,1999.90
2023-07-18T06:12:44.524Z,1999.90
2023-07-18T06:15:19.973Z,1999.90
2023-07-18T06:17:54.364Z,1999.90
2023-07-18T06:20:28.131Z,1999.90
2023-07-18T06:23:02.241Z,1999.90
2023-07-18T06:25:36.847Z,1999.90
2023-07-18T06:28:10.741Z,1999.90
2023-07-18T06:30:46.176Z,1999.90
2023-07-18T06:33:20.712Z,1999.90
2023-07-18T06:35:54.996Z,1999.90
2023-07-18T06:38:28.705Z,1999.90
2023-07-18T06:41:02.642Z,1999.90
2023-07-18T06:43:36.526Z,1999.90
2023-07-18T06:46:12.452Z,1999.90
2023-07-18T06:48:46.186Z,1999.90
2023-07-18T06:51:20.262Z,1999.90
2023-07-18T06:53:54.467Z,1999.90
2023-07-18T06:56:28.249Z,1999.90
2023-07-18T06:59:03.445Z,1999.90
2023-07-18T07:01:39.001Z,1999.90
2023-07-18T07:04:13.049Z,1999.90
2023-07-18T07:06:46.839Z,1999.90
2023-07-18T07:09:20.652Z,1999.90
2023-07-18T07:11:54.621Z,1999.90
2023-07-18T07:14:28.464Z,1999.90
2023-07-18T07:17:03.658Z,1999.90
2023-07-18T07:19:37.411Z,1999.90
2023-07-18T07:22:12.853Z,1999.90
2023-07-18T07:24:47.443Z,1999.90
2023-07-18T07:27:21.212Z,1999.90
2023-07-18T07:29:54.983Z,1999.90
2023-07-18T07:32:30.332Z,1999.90
2023-07-18T07:35:05.634Z,1999.90
2023-07-18T07:37:41.874Z,1999.90
2023-07-18T07:40:16.935Z,1999.90
2023-07-18T07:42:50.739Z,1999.90
2023-07-18T07:45:24.722Z,1999.90
2023-07-18T07:47:59.989Z,1999.90
2023-07-18T07:50:36.219Z,1999.90
2023-07-18T07:53:10.111Z,1999.90
2023-07-18T07:55:43.992Z,1999.90
2023-07-18T07:58:17.951Z,1999.90
2023-07-18T08:00:51.996Z,1999.90
2023-07-18T08:03:27.229Z,1999.90
2023-07-18T08:06:01.718Z,1999.90
2023-07-18T08:08:35.792Z,1999.90
2023-07-18T08:11:09.588Z,1999.90
2023-07-18T08:13:43.328Z,1999.90
2023-07-18T08:16:17.141Z,1999.90
2023-07-18T08:18:52.242Z,1999.90
2023-07-18T08:21:25.927Z,1999.90
2023-07-18T08:23:59.556Z,1999.90
2023-07-18T08:26:33.291Z,1999.90
2023-07-18T08:29:07.062Z,1999.90
2023-07-18T08:31:40.794Z,1999.90
2023-07-18T08:34:16.921Z,1999.90
2023-07-18T08:36:51.356Z,1999.90
2023-07-18T08:39:25.073Z,1999.90
2023-07-18T08:42:00.946Z,1999.90
2023-07-18T08:44:36.577Z,1999.90
2023-07-18T08:47:12.091Z,1999.90
2023-07-18T08:49:47.282Z,1999.90
2023-07-18T08:52:21.168Z,1999.90
2023-07-18T08:54:55.060Z,1999.90
2023-07-18T08:57:29.734Z,1999.90
2023-07-18T09:00:06.141Z,1999.90
2023-07-18T09:02:40.724Z,1999.90
2023-07-18T09:08:29.664Z,1999.90
2023-07-18T09:11:04.439Z,1999.90
2023-07-18T09:13:40.377Z,1999.90
2023-07-18T09:16:15.540Z,1999.90
2023-07-18T09:18:53.976Z,1999.90
2023-07-18T09:21:28.457Z,1999.90
2023-07-18T09:24:06.012Z,1999.90
2023-07-18T09:26:41.157Z,1999.90
2023-07-18T09:29:16.659Z,1999.90
2023-07-18T09:31:52.664Z,1999.90
2023-07-18T09:34:28.651Z,1999.90
2023-07-18T09:37:05.043Z,1999.90
2023-07-18T09:39:46.238Z,1999.90
2023-07-18T09:43:20.536Z,1999.90
2023-07-18T09:45:55.512Z,1999.90
2023-07-18T09:51:23.559Z,1999.90
2023-07-18T09:54:08.894Z,1999.90
2023-07-18T09:56:46.757Z,1999.90
2023-07-18T09:59:27.465Z,1999.90
2023-07-18T10:02:08.826Z,1999.90
2023-07-18T10:04:43.065Z,1999.90
2023-07-18T10:07:17.996Z,1999.90
2023-07-18T10:09:53.182Z,1999.90
2023-07-18T10:12:28.539Z,1999.90
2023-07-18T10:15:04.413Z,1999.90
2023-07-18T10:17:41.736Z,1999.90
2023-07-18T10:20:21.418Z,1999.90
2023-07-18T10:22:58.698Z,1999.90
2023-07-18T10:25:33.011Z,1999.90
2023-07-18T10:28:10.537Z,1999.90
2023-07-18T10:30:45.824Z,1999.90
2023-07-18T10:33:19.571Z,1999.90
2023-07-18T10:35:53.335Z,1999.90
2023-07-18T10:38:37.521Z,1999.90
2023-07-18T10:41:11.216Z,1999.90
2023-07-18T10:43:51.243Z,1999.90
2023-07-18T10:46:25.021Z,1999.90
2023-07-18T10:48:58.849Z,1999.90
2023-07-18T10:51:32.780Z,1999.90
2023-07-18T10:54:07.883Z,1999.90
2023-07-18T10:56:45.171Z,1999.90
2023-07-18T10:59:21.348Z,1999.90
2023-07-18T11:01:55.357Z,1999.90
2023-07-18T11:04:29.602Z,1999.90
2023-07-18T11:07:03.310Z,1999.90
2023-07-18T11:09:37.844Z,1999.90
2023-07-18T11:12:20.133Z,1999.90
2023-07-18T11:14:55.809Z,1999.90
2023-07-18T11:17:30.368Z,1999.90
2023-07-18T11:20:05.825Z,1999.90
2023-07-18T11:22:39.766Z,1999.90
2023-07-18T11:25:14.004Z,1999.90
2023-07-18T11:27:52.023Z,1999.90
2023-07-18T11:30:28.516Z,1999.90
2023-07-18T11:33:02.449Z,1999.90
2023-07-18T11:35:36.585Z,1999.90
2023-07-18T11:38:11.655Z,1999.90
2023-07-18T11:40:47.251Z,1999.90
2023-07-18T11:43:21.839Z,1999.90
2023-07-18T11:46:01.604Z,1999.90
2023-07-18T11:48:36.574Z,1999.90
2023-07-18T11:51:11.054Z,1999.90
2023-07-18T11:53:45.385Z,1999.90
2023-07-18T11:56:19.440Z,1999.90
2023-07-18T11:58:53.541Z,1999.90
2023-07-18T12:04:45.399Z,1999.90
2023-07-18T12:07:19.775Z,1999.90
2023-07-18T12:09:57.923Z,1999.90
2023-07-18T12:12:31.988Z,1999.90
2023-07-18T12:15:07.003Z,1999.90
2023-07-18T12:17:42.421Z,1999.90
2023-07-18T12:20:16.348Z,1999.90
2023-07-18T12:22:50.388Z,1999.90
2023-07-18T12:25:25.989Z,1999.90
2023-07-18T12:27:59.784Z,1999.90
2023-07-18T12:30:36.316Z,1999.90
2023-07-18T12:33:15.645Z,1999.90
2023-07-18T12:35:50.486Z,1999.90
2023-07-18T12:38:30.405Z,1999.90
2023-07-18T12:41:22.239Z,1844.18
2023-07-18T12:43:57.965Z,1999.90
2023-07-18T12:46:33.314Z,1999.90
2023-07-18T12:49:08.880Z,1999.90
2023-07-18T12:51:42.863Z,1999.90
2023-07-18T12:54:16.636Z,1999.90
2023-07-18T12:56:50.313Z,1999.90
2023-07-18T12:59:24.031Z,1999.90
2023-07-18T13:01:58.049Z,1999.90
2023-07-18T13:04:33.341Z,1999.90
2023-07-18T13:07:07.334Z,1999.90
2023-07-18T13:09:41.104Z,1999.90
2023-07-18T13:12:15.062Z,1999.90
2023-07-18T13:14:48.863Z,1999.90
2023-07-18T13:17:22.849Z,1999.90
2023-07-18T13:19:57.983Z,1999.90
2023-07-18T13:22:32.450Z,1999.90
2023-07-18T13:25:07.190Z,1999.90
2023-07-18T13:27:42.569Z,1999.90
2023-07-18T13:30:16.610Z,1999.90
2023-07-18T13:32:51.480Z,1999.90
2023-07-18T13:35:28.388Z,1999.90
2023-07-18T13:38:02.246Z,1999.90
2023-07-18T13:40:36.598Z,1999.90
2023-07-18T13:43:10.787Z,1999.90
2023-07-18T13:45:44.540Z,1999.90
2023-07-18T13:48:18.304Z,1999.90
2023-07-18T13:50:53.897Z,1998.30
2023-07-18T13:53:27.848Z,1999.90
2023-07-18T13:56:02.161Z,1999.90
2023-07-18T13:58:36.781Z,1999.90
2023-07-18T14:01:10.634Z,1999.90
2023-07-18T14:03:44.804Z,1999.90
2023-07-18T14:06:20.358Z,1999.90
2023-07-18T14:13:59.502Z,1999.90
2023-07-18T14:16:38.298Z,1999.90
2023-07-18T14:31:19.651Z,1999.90
2023-07-18T14:39:43.184Z,1999.90
2023-07-18T14:50:45.956Z,1999.90
2023-07-18T14:53:38.732Z,1999.90
2023-07-18T14:56:17.507Z,1999.90
2023-07-18T15:00:11.562Z,1999.90
2023-07-18T15:02:49.413Z,1999.90
2023-07-18T15:05:25.990Z,1999.90
2023-07-18T15:36:48.385Z,1999.90
2023-07-18T16:04:33.986Z,1999.90
2023-07-18T16:20:06.410Z,1999.90
2023-07-18T16:23:08.939Z,1999.90
2023-07-18T16:26:09.967Z,1999.90
2023-07-18T16:28:45.372Z,1999.90
2023-07-18T16:31:48.055Z,1999.90
2023-07-18T16:37:25.157Z,1999.90
2023-07-18T16:40:09.925Z,1999.90
2023-07-18T16:43:09.016Z,1999.90
2023-07-18T16:46:06.572Z,1999.90
2023-07-18T16:48:41.981Z,1999.90
2023-07-18T17:01:37.125Z,1999.90
2023-07-18T17:04:18.675Z,1999.90
2023-07-18T17:06:53.388Z,1999.90
2023-07-18T17:09:27.704Z,1999.90
2023-07-18T17:12:03.255Z,1999.90
2023-07-18T17:14:37.217Z,1999.90
2023-07-18T17:17:12.911Z,1999.90
2023-07-18T17:19:59.032Z,1999.90
2023-07-18T17:22:40.938Z,1999.90
2023-07-18T17:25:15.069Z,1999.90
2023-07-18T17:27:49.044Z,1999.90
2023-07-18T17:30:23.213Z,1999.90
2023-07-18T17:32:58.842Z,1999.90
2023-07-18T17:35:32.598Z,1999.90
2023-07-18T17:38:06.328Z,1999.90
2023-07-18T17:40:40.153Z,1999.90
2023-07-18T17:43:17.166Z,1999.90
2023-07-18T17:45:50.904Z,1999.90
2023-07-18T17:48:26.172Z,1999.90
2023-07-18T17:51:00.106Z,1999.90
2023-07-18T17:53:33.765Z,1999.90
2023-07-18T17:56:07.704Z,1999.90
2023-07-18T17:58:43.880Z,1999.90
2023-07-18T18:01:18.738Z,1999.90
2023-07-18T18:03:54.418Z,1999.90
2023-07-18T18:06:28.184Z,1999.90
2023-07-18T18:09:02.219Z,1999.90
2023-07-18T18:11:36.192Z,1999.90
2023-07-18T18:14:10.065Z,1999.90
2023-07-18T18:16:43.894Z,1999.90
2023-07-18T18:19:19.167Z,1999.90
2023-07-18T18:21:52.879Z,1999.90
2023-07-18T18:24:26.620Z,1999.90
2023-07-18T18:27:00.299Z,1999.90
2023-07-18T18:29:34.001Z,1999.90
2023-07-18T18:32:08.823Z,1999.90
2023-07-18T18:34:56.858Z,1999.90
2023-07-18T18:37:38.555Z,1999.90
2023-07-18T18:40:20.697Z,1999.90
2023-07-18T18:45:31.667Z,1999.90
2023-07-18T18:48:11.724Z,1999.90
2023-07-18T18:50:47.872Z,1999.90
2023-07-18T18:53:22.418Z,1999.90
2023-07-18T18:55:57.031Z,1999.90
2023-07-18T18:58:30.768Z,1686.55
2023-07-18T19:01:04.360Z,1999.90
2023-07-18T19:03:38.069Z,1999.90
2023-07-18T19:06:13.305Z,1999.90
2023-07-18T19:08:46.941Z,1999.90
2023-07-18T19:11:20.618Z,1999.90
2023-07-18T19:13:55.723Z,1999.90
2023-07-18T19:16:38.805Z,1999.90
2023-07-18T19:19:15.117Z,1999.90
2023-07-18T19:21:50.268Z,1999.90
2023-07-18T19:24:24.153Z,1999.90
2023-07-18T19:26:58.069Z,1999.90
2023-07-18T19:29:32.351Z,1999.90
2023-07-18T19:32:09.704Z,1999.90
2023-07-18T19:34:43.720Z,1999.90
2023-07-18T19:37:18.887Z,1999.90
2023-07-18T19:39:52.647Z,1999.90
2023-07-18T19:42:26.417Z,1999.90
2023-07-18T19:45:00.108Z,1999.90
2023-07-18T19:47:33.917Z,1999.90
2023-07-18T19:50:11.346Z,1999.90
2023-07-18T19:52:47.032Z,1999.90
2023-07-18T19:55:20.824Z,1999.90
2023-07-18T19:57:55.042Z,1999.90
2023-07-18T20:00:28.829Z,1999.90
2023-07-18T20:03:03.659Z,1999.90
2023-07-18T20:05:37.511Z,1999.90
2023-07-18T20:08:12.708Z,1999.90
2023-07-18T20:10:46.447Z,1999.90
2023-07-18T20:13:20.284Z,1999.90
2023-07-18T20:15:54.861Z,1999.90
2023-07-18T20:18:28.514Z,1999.90
2023-07-18T20:21:03.587Z,1999.90
2023-07-18T20:23:38.726Z,1999.90
2023-07-18T20:26:12.522Z,1999.90
2023-07-18T20:28:46.235Z,1999.90
2023-07-18T20:31:20.580Z,1999.90
2023-07-18T20:33:54.639Z,1999.90
2023-07-18T20:36:28.541Z,1999.90
2023-07-18T20:39:03.706Z,1999.90
2023-07-18T20:41:37.565Z,1999.90
2023-07-18T20:44:11.395Z,1999.90
2023-07-18T20:46:45.868Z,1999.90
2023-07-18T20:49:19.601Z,1999.90
2023-07-18T20:51:53.296Z,1999.90
2023-07-18T20:54:29.995Z,1999.90
2023-07-18T20:57:03.712Z,1999.90
2023-07-18T20:59:37.386Z,1999.90
2023-07-18T21:02:11.162Z,1999.90
2023-07-18T21:04:44.796Z,1999.90
2023-07-18T21:07:18.503Z,1999.90
2023-07-18T21:09:53.674Z,1999.90
2023-07-18T21:12:27.699Z,1999.90
2023-07-18T21:15:01.665Z,1999.90
2023-07-18T21:17:43.012Z,1999.90
2023-07-18T21:20:17.229Z,1999.90
2023-07-18T21:22:51.945Z,1999.90
2023-07-18T21:25:27.245Z,1999.90
2023-07-18T21:28:01.000Z,1999.90
2023-07-18T21:30:34.709Z,1999.90
2023-07-18T21:33:08.495Z,1999.90
2023-07-18T21:35:42.215Z,1999.90
2023-07-18T21:38:15.889Z,1999.90
2023-07-18T21:40:51.017Z,1999.90
2023-07-18T21:43:24.706Z,1999.90
2023-07-18T21:45:58.456Z,1999.90
2023-07-18T21:48:32.075Z,1999.90
2023-07-18T21:51:05.799Z,1999.90
2023-07-18T21:53:39.548Z,1999.90
2023-07-18T21:56:14.696Z,1999.90
2023-07-18T21:58:48.504Z,1999.90
2023-07-18T22:01:22.615Z,1999.90
2023-07-18T22:03:57.499Z,1999.90
2023-07-18T22:06:31.201Z,1999.90
2023-07-18T22:09:07.505Z,1999.90
2023-07-18T22:11:44.336Z,1999.90
2023-07-18T22:14:18.110Z,1999.90
2023-07-18T22:16:51.819Z,1999.90
2023-07-18T22:19:25.680Z,1999.90
2023-07-18T22:21:59.430Z,1999.90
2023-07-18T22:24:33.165Z,1999.90
2023-07-18T22:27:08.935Z,1984.55
2023-07-18T22:29:43.018Z,1952.47
2023-07-18T22:32:16.676Z,1999.90
2023-07-18T22:34:50.357Z,1999.90
2023-07-18T22:37:25.483Z,1973.95
2023-07-18T22:39:59.175Z,1746.75
2023-07-18T22:42:34.371Z,1612.20
2023-07-18T22:45:08.774Z,1267.57
2023-07-18T22:47:42.749Z,1599.18
2023-07-18T22:50:16.505Z,1789.28
2023-07-18T22:52:50.137Z,1681.93
2023-07-18T22:55:23.772Z,1354.07
2023-07-18T22:57:58.958Z,1579.45
2023-07-18T23:00:32.728Z,1766.97
2023-07-18T23:03:07.728Z,1997.80
2023-07-18T23:05:41.597Z,1521.07
2023-07-18T23:08:15.196Z,1520.43
2023-07-18T23:10:49.025Z,1244.40
2023-07-18T23:13:24.531Z,1694.03
2023-07-18T23:15:58.361Z,1597.93
2023-07-18T23:18:32.039Z,1440.90
2023-07-18T23:21:05.689Z,1464.97
2023-07-18T23:23:39.327Z,1175.88
2023-07-18T23:26:12.975Z,1466.35
2023-07-18T23:28:47.996Z,1571.25
2023-07-18T23:31:21.840Z,1629.00
2023-07-18T23:33:56.443Z,1999.90
2023-07-18T23:36:30.149Z,1831.60
2023-07-18T23:39:03.817Z,1438.45
2023-07-18T23:41:37.447Z,1301.90
2023-07-18T23:44:12.620Z,1654.55
2023-07-18T23:46:46.504Z,1175.93
2023-07-18T23:49:20.346Z,1637.40
2023-07-18T23:51:54.080Z,1080.00
2023-07-18T23:54:27.768Z,1336.35
2023-07-18T23:57:01.423Z,956.45
2023-07-18T23:59:36.564Z,1559.72
